Time;durP1;ratioP1;P1;durP2;ratioP2;P2;SDS_P1;SDS_P2;PMS_P1;PMS_P2;Temp;Humidity;BMP_temperature;BMP_pressure;BME280_temperature;BME280_humidity;BME280_pressure;Samples;Min_cycle;Max_cycle;Signal;HPM_P1;HPM_P2
2022/06/30 00:00:40;;;;;;;8.10;1.85;;;18.20;99.90;;;;;;5122388;27;20429;-77
2022/06/30 00:03:06;;;;;;;5.18;1.70;;;18.20;99.90;;;;;;5117772;27;20068;-77
2022/06/30 00:05:32;;;;;;;4.18;1.88;;;18.20;99.90;;;;;;5120390;27;20047;-77
2022/06/30 00:07:58;;;;;;;3.33;1.83;;;18.10;99.90;;;;;;5121156;27;20114;-77
2022/06/30 00:10:24;;;;;;;3.45;1.80;;;18.10;99.90;;;;;;5120341;27;20055;-77
2022/06/30 00:12:49;;;;;;;6.55;2.00;;;18.10;99.90;;;;;;5122178;27;20039;-77
2022/06/30 00:15:15;;;;;;;4.38;1.60;;;18.10;99.90;;;;;;5119135;27;20104;-78
2022/06/30 00:17:41;;;;;;;2.90;1.30;;;18.00;99.90;;;;;;5121870;27;20517;-77
2022/06/30 00:20:07;;;;;;;6.45;1.83;;;18.00;99.90;;;;;;5116357;27;20089;-77
2022/06/30 00:22:33;;;;;;;2.38;1.45;;;18.00;99.90;;;;;;5122884;27;20532;-77
2022/06/30 00:24:59;;;;;;;3.80;1.70;;;18.00;99.90;;;;;;5120375;27;20031;-77
2022/06/30 00:27:28;;;;;;;5.68;1.48;;;18.00;99.90;;;;;;5123034;27;20032;-77
2022/06/30 00:29:54;;;;;;;3.65;1.85;;;17.90;99.90;;;;;;5122064;27;20031;-76
2022/06/30 00:32:19;;;;;;;10.85;3.53;;;17.90;99.90;;;;;;5118442;27;20039;-76
2022/06/30 00:34:45;;;;;;;4.20;2.10;;;17.80;99.90;;;;;;5120817;27;20035;-77
2022/06/30 00:37:11;;;;;;;3.90;2.08;;;17.80;99.90;;;;;;5122642;27;20039;-76
2022/06/30 00:39:37;;;;;;;8.20;2.72;;;17.70;99.90;;;;;;5120529;27;20112;-76
2022/06/30 00:42:05;;;;;;;5.15;1.80;;;17.70;99.90;;;;;;5118368;27;20090;-76
2022/06/30 00:44:31;;;;;;;3.55;1.73;;;17.70;99.90;;;;;;5119610;27;20118;-76
2022/06/30 00:46:57;;;;;;;7.30;2.20;;;17.70;99.90;;;;;;5124387;27;20046;-76
2022/06/30 00:49:23;;;;;;;8.70;2.25;;;17.80;99.90;;;;;;5120846;27;20040;-76
2022/06/30 00:51:49;;;;;;;5.07;1.92;;;17.70;99.90;;;;;;5124026;27;20519;-76
2022/06/30 00:54:16;;;;;;;4.68;2.58;;;17.80;99.90;;;;;;5120656;27;20043;-76
2022/06/30 00:56:46;;;;;;;5.53;1.88;;;17.80;99.90;;;;;;5121405;27;20043;-76
2022/06/30 00:59:13;;;;;;;3.38;1.67;;;17.80;99.90;;;;;;5121126;27;20081;-76
2022/06/30 01:01:42;;;;;;;2.90;1.83;;;17.70;99.90;;;;;;5115409;27;20040;-77
2022/06/30 01:04:09;;;;;;;7.97;1.88;;;17.80;99.90;;;;;;5115480;27;20034;-76
2022/06/30 01:06:36;;;;;;;5.95;2.17;;;17.70;99.90;;;;;;5127594;27;20055;-76
2022/06/30 01:09:03;;;;;;;4.55;2.15;;;17.70;99.90;;;;;;5117480;27;20067;-77
2022/06/30 01:14:15;;;;;;;5.25;2.03;;;17.70;99.90;;;;;;5123292;27;20047;-76
2022/06/30 01:16:41;;;;;;;4.88;1.77;;;17.70;99.90;;;;;;5118420;27;20047;-77
2022/06/30 01:19:07;;;;;;;4.28;1.77;;;17.50;99.90;;;;;;5120607;27;20047;-76
2022/06/30 01:21:34;;;;;;;4.88;2.10;;;17.60;99.90;;;;;;5117956;27;20046;-77
2022/06/30 01:23:59;;;;;;;5.60;2.45;;;17.50;99.90;;;;;;5118682;27;20533;-76
2022/06/30 01:26:29;;;;;;;7.18;2.33;;;17.50;99.90;;;;;;5115955;27;20077;-76
2022/06/30 01:28:58;;;;;;;8.98;2.20;;;17.50;99.90;;;;;;5122769;27;20093;-77
2022/06/30 01:31:24;;;;;;;4.18;1.95;;;17.50;99.90;;;;;;5123766;27;20074;-76
2022/06/30 01:33:50;;;;;;;5.47;1.95;;;17.50;99.90;;;;;;5119264;27;20661;-77
2022/06/30 01:36:16;;;;;;;4.63;1.70;;;17.50;99.90;;;;;;5118794;27;20671;-76
2022/06/30 01:38:41;;;;;;;7.18;2.83;;;17.60;99.90;;;;;;5120878;27;20054;-76
2022/06/30 01:41:07;;;;;;;11.07;2.40;;;17.60;99.90;;;;;;5119181;27;20035;-76
2022/06/30 01:43:33;;;;;;;7.80;2.90;;;17.60;99.90;;;;;;5117921;27;20544;-76
2022/06/30 01:45:59;;;;;;;3.75;2.05;;;17.60;99.90;;;;;;5118234;27;20040;-76
2022/06/30 01:48:25;;;;;;;7.32;2.00;;;17.60;99.90;;;;;;5118920;27;20044;-76
2022/06/30 01:50:51;;;;;;;5.32;1.95;;;17.60;99.90;;;;;;5120766;27;20043;-75
2022/06/30 01:53:17;;;;;;;5.10;2.53;;;17.60;99.90;;;;;;5122552;27;20038;-76
2022/06/30 01:55:43;;;;;;;2.65;1.80;;;17.60;99.90;;;;;;5115282;27;20051;-76
2022/06/30 01:58:08;;;;;;;6.05;2.50;;;17.60;99.90;;;;;;5119580;27;20051;-76
2022/06/30 02:00:34;;;;;;;5.50;2.08;;;17.60;99.90;;;;;;5119741;27;20113;-76
2022/06/30 02:03:00;;;;;;;6.47;1.80;;;17.60;99.90;;;;;;5113610;27;20067;-76
2022/06/30 02:05:27;;;;;;;4.20;2.05;;;17.50;99.90;;;;;;5116926;27;20054;-75
2022/06/30 02:07:53;;;;;;;6.82;2.20;;;17.50;99.90;;;;;;5114594;27;20043;-76
2022/06/30 02:10:24;;;;;;;7.15;2.13;;;17.50;99.90;;;;;;5122680;27;20623;-76
2022/06/30 02:12:51;;;;;;;4.60;2.85;;;17.50;99.90;;;;;;5115378;27;20040;-76
2022/06/30 02:15:34;;;;;;;4.00;1.88;;;17.50;99.90;;;;;;5119949;27;20054;-76
2022/06/30 02:18:02;;;;;;;7.68;1.90;;;17.50;99.90;;;;;;5120100;27;20132;-77
2022/06/30 02:20:28;;;;;;;7.43;2.63;;;17.50;99.90;;;;;;5116700;27;20047;-75
2022/06/30 02:22:56;;;;;;;9.15;2.63;;;17.50;99.90;;;;;;5119668;27;20039;-76
2022/06/30 02:25:26;;;;;;;7.40;1.85;;;17.50;99.90;;;;;;5115538;27;20135;-75
2022/06/30 02:27:53;;;;;;;5.30;2.13;;;17.50;99.90;;;;;;5115937;27;20517;-76
2022/06/30 02:30:19;;;;;;;4.32;2.00;;;17.50;99.90;;;;;;5122571;27;20122;-76
2022/06/30 02:32:45;;;;;;;3.22;1.75;;;17.50;99.90;;;;;;5119070;27;20046;-76
2022/06/30 02:35:11;;;;;;;6.88;2.00;;;17.50;99.90;;;;;;5125606;27;20035;-76
2022/06/30 02:37:37;;;;;;;8.02;2.53;;;17.50;99.90;;;;;;5115495;27;20108;-76
2022/06/30 02:40:04;;;;;;;5.15;2.28;;;17.50;99.90;;;;;;5118054;27;20043;-76
2022/06/30 02:42:30;;;;;;;7.40;2.67;;;17.50;99.90;;;;;;5119720;27;20059;-76
2022/06/30 02:44:56;;;;;;;7.28;2.22;;;17.50;99.90;;;;;;5120206;27;20122;-76
2022/06/30 02:47:28;;;;;;;7.10;2.50;;;17.60;99.90;;;;;;5116284;27;20591;-77
2022/06/30 02:49:54;;;;;;;7.07;2.47;;;17.40;99.90;;;;;;5116669;27;20048;-76
2022/06/30 02:52:20;;;;;;;3.65;1.80;;;17.50;99.90;;;;;;5131414;27;20562;-76
2022/06/30 02:54:45;;;;;;;8.18;2.72;;;17.40;99.90;;;;;;5119089;27;20149;-76
2022/06/30 02:57:11;;;;;;;7.20;3.00;;;17.40;99.90;;;;;;5117730;27;20047;-76
2022/06/30 02:59:37;;;;;;;6.47;2.08;;;17.40;99.90;;;;;;5118304;27;20549;-76
2022/06/30 03:02:03;;;;;;;7.45;2.35;;;17.40;99.90;;;;;;5114526;27;20039;-76
2022/06/30 03:04:29;;;;;;;9.35;2.03;;;17.40;99.90;;;;;;5117440;27;20050;-76
2022/06/30 03:06:55;;;;;;;9.27;2.33;;;17.40;99.90;;;;;;5117718;27;20109;-76
2022/06/30 03:09:23;;;;;;;5.32;2.03;;;17.40;99.90;;;;;;5118482;27;21006;-76
2022/06/30 03:11:49;;;;;;;11.82;2.38;;;17.40;99.90;;;;;;5114077;27;20546;-75
2022/06/30 03:14:15;;;;;;;8.00;2.38;;;17.40;99.90;;;;;;5118869;27;20070;-76
2022/06/30 03:16:41;;;;;;;4.68;2.30;;;17.40;99.90;;;;;;5119025;27;20039;-76
2022/06/30 03:19:06;;;;;;;10.52;2.50;;;17.40;99.90;;;;;;5119086;27;20075;-76
2022/06/30 03:21:32;;;;;;;7.88;2.20;;;17.40;99.90;;;;;;5114223;27;20098;-77
2022/06/30 03:23:58;;;;;;;6.30;2.92;;;17.30;99.90;;;;;;5118094;27;20047;-77
2022/06/30 03:26:24;;;;;;;6.85;2.35;;;17.40;99.90;;;;;;5122770;27;20424;-77
2022/06/30 03:28:49;;;;;;;9.63;2.53;;;17.30;99.90;;;;;;5127406;27;20479;-78
2022/06/30 03:31:15;;;;;;;5.38;2.67;;;17.30;99.90;;;;;;5116579;27;20125;-77
2022/06/30 03:33:41;;;;;;;13.35;3.63;;;17.30;99.90;;;;;;5117168;27;20035;-78
2022/06/30 03:36:07;;;;;;;8.90;3.83;;;17.30;99.90;;;;;;5116746;27;20528;-77
2022/06/30 03:38:32;;;;;;;5.57;3.38;;;17.30;99.90;;;;;;5118399;27;20138;-77
2022/06/30 03:40:58;;;;;;;7.60;2.88;;;17.30;99.90;;;;;;5118735;27;20118;-77
2022/06/30 03:43:24;;;;;;;8.70;2.75;;;17.30;99.90;;;;;;5116059;27;20563;-78
2022/06/30 03:45:50;;;;;;;7.43;2.50;;;17.30;99.90;;;;;;5119202;27;20525;-77
2022/06/30 03:48:15;;;;;;;6.50;2.35;;;17.30;99.90;;;;;;5121088;27;20143;-77
2022/06/30 03:50:41;;;;;;;7.30;1.98;;;17.30;99.90;;;;;;5121735;27;20525;-77
2022/06/30 03:53:07;;;;;;;6.15;2.35;;;17.30;99.90;;;;;;5127709;27;20623;-77
2022/06/30 03:55:33;;;;;;;5.38;2.33;;;17.30;99.90;;;;;;5109112;27;20112;-78
2022/06/30 03:58:00;;;;;;;12.27;4.05;;;17.30;99.90;;;;;;5117196;27;21986;-78
2022/06/30 04:00:26;;;;;;;5.13;2.88;;;17.30;99.90;;;;;;5127694;27;20106;-78
2022/06/30 04:02:52;;;;;;;8.50;3.65;;;17.30;99.90;;;;;;5120314;27;20126;-78
2022/06/30 04:05:17;;;;;;;10.10;2.40;;;17.30;99.90;;;;;;5121175;27;20060;-77
2022/06/30 04:07:45;;;;;;;6.05;2.20;;;17.30;99.90;;;;;;5120817;27;20036;-78
2022/06/30 04:10:12;;;;;;;10.77;2.47;;;17.30;99.90;;;;;;5125342;27;20042;-78
2022/06/30 04:12:38;;;;;;;3.13;1.85;;;17.30;99.90;;;;;;5115874;27;20036;-78
2022/06/30 04:15:05;;;;;;;6.13;1.88;;;17.30;99.90;;;;;;5122696;27;20635;-77
2022/06/30 04:17:34;;;;;;;5.90;3.33;;;17.30;99.90;;;;;;5128226;27;20063;-77
2022/06/30 04:20:04;;;;;;;8.55;2.50;;;17.30;99.90;;;;;;5121702;27;20049;-77
2022/06/30 04:22:30;;;;;;;3.90;1.60;;;17.30;99.90;;;;;;5125870;27;20413;-77
2022/06/30 04:24:55;;;;;;;5.72;2.60;;;17.30;99.90;;;;;;5117878;27;20051;-78
2022/06/30 04:27:22;;;;;;;8.45;2.50;;;17.30;99.90;;;;;;5119073;27;20047;-79
2022/06/30 04:29:47;;;;;;;3.63;2.30;;;17.30;99.90;;;;;;5120110;27;20042;-78
2022/06/30 04:34:57;;;;;;;14.95;2.92;;;17.40;99.90;;;;;;5117033;27;20049;-79
2022/06/30 04:37:23;;;;;;;7.90;2.30;;;17.40;99.90;;;;;;5120907;27;20531;-78
2022/06/30 04:39:49;;;;;;;9.73;3.75;;;17.40;99.90;;;;;;5121417;27;20039;-77
2022/06/30 04:42:14;;;;;;;5.82;2.50;;;17.40;99.90;;;;;;5114885;27;20075;-77
2022/06/30 04:44:41;;;;;;;5.47;2.05;;;17.40;99.90;;;;;;5116174;27;20043;-77
2022/06/30 04:47:07;;;;;;;11.07;4.57;;;17.40;99.90;;;;;;5115828;27;20040;-77
2022/06/30 04:49:33;;;;;;;9.93;3.47;;;17.40;99.90;;;;;;5113202;27;20509;-78
2022/06/30 04:51:59;;;;;;;12.90;3.22;;;17.30;99.90;;;;;;5119226;27;20039;-78
2022/06/30 04:54:24;;;;;;;9.05;2.70;;;17.30;99.90;;;;;;5116525;27;20177;-77
2022/06/30 04:56:50;;;;;;;6.32;2.55;;;17.30;99.90;;;;;;5116229;27;20394;-77
2022/06/30 04:59:16;;;;;;;6.55;2.30;;;17.30;99.90;;;;;;5122268;27;20036;-79
2022/06/30 05:01:42;;;;;;;11.27;3.15;;;17.30;99.90;;;;;;5119121;27;20493;-77
2022/06/30 05:04:07;;;;;;;10.65;3.53;;;17.30;99.90;;;;;;5124901;27;20047;-84
2022/06/30 05:06:33;;;;;;;10.48;2.78;;;17.30;99.90;;;;;;5116071;27;22135;-83
2022/06/30 05:08:59;;;;;;;9.90;2.38;;;17.30;99.90;;;;;;5122366;27;20093;-83
2022/06/30 05:11:25;;;;;;;7.10;2.78;;;17.30;99.90;;;;;;5122395;27;20509;-83
2022/06/30 05:13:50;;;;;;;11.98;2.78;;;17.30;99.90;;;;;;5123464;27;20097;-83
2022/06/30 05:16:16;;;;;;;12.02;4.13;;;17.30;99.90;;;;;;5115693;27;20092;-83
2022/06/30 05:18:42;;;;;;;9.75;3.97;;;17.40;99.90;;;;;;5121794;27;20040;-82
2022/06/30 05:21:08;;;;;;;10.30;2.97;;;17.40;99.90;;;;;;5127202;27;20047;-83
2022/06/30 05:23:33;;;;;;;7.75;2.92;;;17.40;99.90;;;;;;5125149;27;20048;-92
2022/06/30 05:28:43;;;;;;;6.95;2.90;;;17.40;99.90;;;;;;5121554;27;20050;-82
2022/06/30 05:31:09;;;;;;;7.60;2.88;;;17.40;99.90;;;;;;5118530;27;20067;-82
2022/06/30 05:33:35;;;;;;;9.77;3.03;;;17.40;99.90;;;;;;5122892;27;20395;-82
2022/06/30 05:36:02;;;;;;;8.63;2.53;;;17.40;99.90;;;;;;5126550;27;20032;-82
2022/06/30 05:38:27;;;;;;;12.30;3.45;;;17.40;99.90;;;;;;5122284;27;20172;-81
2022/06/30 05:40:53;;;;;;;7.90;2.90;;;17.40;99.90;;;;;;5121701;27;20046;-83
2022/06/30 05:43:19;;;;;;;9.57;3.17;;;17.40;99.90;;;;;;5119128;27;20048;-83
2022/06/30 05:45:53;;;;;;;11.20;2.70;;;17.30;99.90;;;;;;5123592;27;20035;-84
2022/06/30 05:48:18;;;;;;;8.18;3.60;;;17.40;99.90;;;;;;5119522;27;20053;-83
2022/06/30 05:50:44;;;;;;;12.43;5.32;;;17.40;99.90;;;;;;5120482;27;20451;-81
2022/06/30 05:53:10;;;;;;;8.13;2.65;;;17.40;99.90;;;;;;5120216;27;20651;-81
2022/06/30 05:55:36;;;;;;;11.27;3.40;;;17.40;99.90;;;;;;5118513;27;20508;-81
2022/06/30 05:58:03;;;;;;;14.80;4.85;;;17.40;99.90;;;;;;5121211;27;20561;-80
2022/06/30 06:00:31;;;;;;;5.70;2.35;;;17.40;99.90;;;;;;5117076;27;20668;-81
2022/06/30 06:02:57;;;;;;;7.43;3.42;;;17.40;99.90;;;;;;5119269;27;20043;-82
2022/06/30 06:05:23;;;;;;;7.85;2.90;;;17.40;99.90;;;;;;5118462;27;20560;-81
2022/06/30 06:07:50;;;;;;;11.77;2.35;;;17.50;99.90;;;;;;5123267;27;20050;-81
2022/06/30 06:10:16;;;;;;;9.77;3.45;;;17.50;99.90;;;;;;5123330;27;20808;-82
2022/06/30 06:12:45;;;;;;;6.57;2.88;;;17.40;99.90;;;;;;5120039;27;20040;-82
2022/06/30 06:15:12;;;;;;;8.43;3.03;;;17.40;99.90;;;;;;5103164;27;20124;-82
2022/06/30 06:17:46;;;;;;;12.32;3.10;;;17.40;99.90;;;;;;5121351;27;20555;-81
2022/06/30 06:20:15;;;;;;;6.97;2.97;;;17.40;99.90;;;;;;5121219;27;20093;-82
2022/06/30 06:22:41;;;;;;;8.23;2.50;;;17.30;99.90;;;;;;5121590;27;20566;-82
2022/06/30 06:25:08;;;;;;;3.95;2.83;;;17.40;99.90;;;;;;5139634;27;20040;-81
2022/06/30 06:27:34;;;;;;;5.75;2.78;;;17.40;99.90;;;;;;5122994;27;20110;-81
2022/06/30 06:30:03;;;;;;;9.95;2.90;;;17.30;99.90;;;;;;5119487;27;20457;-82
2022/06/30 06:32:29;;;;;;;7.90;2.70;;;17.30;99.90;;;;;;5121213;27;20052;-80
2022/06/30 06:34:54;;;;;;;11.95;4.28;;;17.30;99.90;;;;;;5123754;27;20035;-80
2022/06/30 06:37:20;;;;;;;7.75;2.60;;;17.30;99.90;;;;;;5124816;27;20123;-81
2022/06/30 06:39:46;;;;;;;9.50;3.15;;;17.40;99.90;;;;;;5122510;27;20035;-82
2022/06/30 06:42:12;;;;;;;5.72;2.83;;;17.40;99.90;;;;;;5120080;27;20043;-82
2022/06/30 06:44:37;;;;;;;4.95;2.50;;;17.40;99.90;;;;;;5122736;27;20043;-82
2022/06/30 06:47:03;;;;;;;7.25;3.13;;;17.40;99.90;;;;;;5118990;27;20047;-83
2022/06/30 06:49:30;;;;;;;9.90;3.05;;;17.40;99.90;;;;;;5127788;27;20035;-81
2022/06/30 06:51:57;;;;;;;5.22;3.38;;;17.40;99.90;;;;;;5129647;27;20032;-82
2022/06/30 06:54:22;;;;;;;6.53;2.78;;;17.40;99.90;;;;;;5127182;27;20597;-82
2022/06/30 06:56:48;;;;;;;8.35;2.50;;;17.40;99.90;;;;;;5129944;27;20109;-83
2022/06/30 06:59:14;;;;;;;7.30;2.47;;;17.40;99.90;;;;;;5143978;27;20039;-81
2022/06/30 07:01:41;;;;;;;10.38;2.75;;;17.40;99.90;;;;;;5126025;27;20052;-82
2022/06/30 07:04:07;;;;;;;9.18;3.03;;;17.40;99.90;;;;;;5110239;27;20035;-82
2022/06/30 07:06:33;;;;;;;6.30;2.53;;;17.40;99.90;;;;;;5124585;27;20157;-82
2022/06/30 07:08:59;;;;;;;4.50;2.17;;;17.40;99.90;;;;;;5127315;27;20040;-80
2022/06/30 07:11:25;;;;;;;6.57;2.72;;;17.40;99.90;;;;;;5125532;27;20130;-82
2022/06/30 07:13:51;;;;;;;5.55;2.75;;;17.40;99.90;;;;;;5125976;27;20047;-83
2022/06/30 07:16:17;;;;;;;15.57;4.45;;;17.50;99.90;;;;;;5126019;27;20482;-84
2022/06/30 07:18:43;;;;;;;7.93;2.58;;;17.50;99.90;;;;;;5128155;27;20035;-83
2022/06/30 07:21:09;;;;;;;8.63;2.45;;;17.50;99.90;;;;;;5129894;27;20040;-84
2022/06/30 07:23:35;;;;;;;7.60;2.40;;;17.50;99.90;;;;;;5125972;27;20533;-83
2022/06/30 07:26:01;;;;;;;5.80;2.63;;;17.60;99.90;;;;;;5129383;27;20441;-84
2022/06/30 07:28:27;;;;;;;6.45;2.30;;;17.50;99.90;;;;;;5130115;27;20112;-83
2022/06/30 07:30:53;;;;;;;7.32;2.15;;;17.50;99.90;;;;;;5129361;27;20097;-84
2022/06/30 07:33:19;;;;;;;6.63;2.33;;;17.60;99.90;;;;;;5112386;27;21274;-83
2022/06/30 07:35:45;;;;;;;6.32;2.08;;;17.60;99.90;;;;;;5130127;27;20871;-83
2022/06/30 07:38:12;;;;;;;4.70;2.55;;;17.60;99.90;;;;;;5127934;27;20475;-83
2022/06/30 07:40:37;;;;;;;4.95;2.50;;;17.60;99.90;;;;;;5129133;27;20050;-83
2022/06/30 07:43:03;;;;;;;5.93;2.45;;;17.70;99.90;;;;;;5128810;27;20528;-82
2022/06/30 07:45:30;;;;;;;7.90;2.60;;;17.70;99.90;;;;;;5131357;27;20123;-82
2022/06/30 07:47:55;;;;;;;8.23;2.05;;;17.70;99.90;;;;;;5129122;27;20118;-83
2022/06/30 07:50:21;;;;;;;9.35;2.28;;;17.70;99.90;;;;;;5125988;27;20512;-83
2022/06/30 07:52:47;;;;;;;4.30;2.25;;;17.70;99.90;;;;;;5127872;27;20095;-84
2022/06/30 07:55:14;;;;;;;5.97;2.15;;;17.80;99.90;;;;;;5128365;27;20042;-83
2022/06/30 07:57:42;;;;;;;3.50;2.10;;;17.80;99.90;;;;;;5129750;27;20448;-83
2022/06/30 08:00:10;;;;;;;6.70;3.03;;;17.80;99.90;;;;;;5126284;27;20074;-83
2022/06/30 08:02:36;;;;;;;5.50;1.88;;;17.90;99.90;;;;;;5125894;27;20035;-84
2022/06/30 08:05:02;;;;;;;5.55;1.85;;;17.80;99.90;;;;;;5131971;27;20052;-83
2022/06/30 08:07:29;;;;;;;4.88;2.05;;;17.90;99.90;;;;;;5129583;27;20134;-84
2022/06/30 08:09:55;;;;;;;4.38;1.55;;;17.90;99.90;;;;;;5128223;27;20974;-81
2022/06/30 08:12:23;;;;;;;5.50;2.20;;;17.90;99.90;;;;;;5128532;27;20328;-83
2022/06/30 08:14:49;;;;;;;3.72;1.77;;;18.00;99.90;;;;;;5115779;27;20047;-83
2022/06/30 08:17:14;;;;;;;4.68;2.50;;;18.00;99.90;;;;;;5131953;27;20031;-83
2022/06/30 08:19:41;;;;;;;7.93;2.58;;;18.00;99.90;;;;;;5129958;27;20043;-83
2022/06/30 08:22:07;;;;;;;7.43;1.63;;;18.00;99.90;;;;;;5131783;27;20807;-84
2022/06/30 08:24:33;;;;;;;2.03;1.42;;;18.00;99.90;;;;;;5131393;27;20040;-83
2022/06/30 08:27:02;;;;;;;3.33;2.65;;;18.00;99.90;;;;;;5130673;27;20039;-83
2022/06/30 08:29:34;;;;;;;3.40;2.13;;;18.10;99.90;;;;;;5130549;27;20035;-84
2022/06/30 08:32:01;;;;;;;1.70;1.27;;;18.00;99.90;;;;;;5127322;27;20039;-83
2022/06/30 08:34:27;;;;;;;1.75;1.30;;;18.00;99.90;;;;;;5131894;27;20032;-84
2022/06/30 08:36:53;;;;;;;3.97;1.58;;;18.00;99.90;;;;;;5145734;27;20045;-84
2022/06/30 08:42:04;;;;;;;2.67;1.55;;;18.20;99.90;;;;;;5128028;27;20975;-83
2022/06/30 08:44:35;;;;;;;3.72;2.03;;;18.10;99.90;;;;;;5130611;27;20039;-83
2022/06/30 08:47:03;;;;;;;2.85;2.13;;;18.10;99.90;;;;;;5129552;27;20039;-83
2022/06/30 08:49:30;;;;;;;3.60;1.73;;;18.10;99.90;;;;;;5129427;27;20519;-84
2022/06/30 08:51:57;;;;;;;3.28;1.65;;;18.10;99.90;;;;;;5129321;27;20044;-83
2022/06/30 08:54:26;;;;;;;5.40;2.20;;;18.10;99.90;;;;;;5128726;27;20586;-84
2022/06/30 08:56:54;;;;;;;3.20;1.30;;;18.10;99.90;;;;;;5128726;27;20525;-84
2022/06/30 08:59:20;;;;;;;4.75;1.88;;;18.10;99.90;;;;;;5128897;27;20052;-84
2022/06/30 09:01:47;;;;;;;2.47;1.40;;;18.10;99.90;;;;;;5127840;27;20506;-84
2022/06/30 09:04:14;;;;;;;7.22;1.70;;;18.20;99.90;;;;;;5126432;27;20045;-84
2022/06/30 09:06:43;;;;;;;1.67;1.40;;;18.20;99.90;;;;;;5128277;27;20137;-84
2022/06/30 09:09:10;;;;;;;8.60;2.08;;;18.30;99.90;;;;;;5127420;27;20043;-83
2022/06/30 09:11:57;;;;;;;3.65;1.85;;;18.30;99.90;;;;;;5145785;27;20074;-84
2022/06/30 09:14:42;;;;;;;3.05;1.70;;;18.30;99.90;;;;;;5129168;27;20114;-84
2022/06/30 09:17:12;;;;;;;3.67;1.83;;;18.40;99.90;;;;;;5125393;27;20036;-84
2022/06/30 09:19:50;;;;;;;2.42;1.30;;;18.40;99.90;;;;;;5127418;27;20040;-84
2022/06/30 09:22:16;;;;;;;3.65;1.70;;;18.40;99.90;;;;;;5125190;27;20048;-84
2022/06/30 09:24:42;;;;;;;4.55;1.40;;;18.30;99.90;;;;;;5126203;27;20038;-84
2022/06/30 09:27:19;;;;;;;3.75;1.50;;;18.30;99.90;;;;;;5123338;27;20539;-84
2022/06/30 09:30:09;;;;;;;3.63;1.67;;;18.20;99.90;;;;;;5127035;27;20047;-84
2022/06/30 09:32:45;;;;;;;3.88;1.58;;;18.20;99.90;;;;;;5126850;27;20035;-84
2022/06/30 09:35:12;;;;;;;6.32;1.52;;;18.20;99.90;;;;;;5126163;27;20036;-84
2022/06/30 09:37:38;;;;;;;5.13;1.98;;;18.30;99.90;;;;;;5110011;27;20035;-84
2022/06/30 09:40:08;;;;;;;2.58;2.10;;;18.40;99.90;;;;;;5123857;27;20047;-84
2022/06/30 09:42:45;;;;;;;3.08;1.40;;;18.50;99.90;;;;;;5125985;27;20228;-84
2022/06/30 09:45:13;;;;;;;1.90;1.33;;;18.70;99.90;;;;;;5124694;27;20039;-84
2022/06/30 09:47:54;;;;;;;5.85;1.83;;;18.80;99.90;;;;;;5125431;27;20043;-84
2022/06/30 09:50:20;;;;;;;2.88;1.55;;;18.80;99.90;;;;;;5125628;27;20032;-84
2022/06/30 09:53:01;;;;;;;4.82;1.55;;;18.80;99.90;;;;;;5109176;27;20048;-84
2022/06/30 09:55:37;;;;;;;2.42;1.42;;;18.80;99.90;;;;;;5124514;27;20047;-84
2022/06/30 09:58:03;;;;;;;3.22;1.27;;;18.80;99.90;;;;;;5124183;27;20067;-87
2022/06/30 10:00:29;;;;;;;4.18;2.30;;;18.80;99.90;;;;;;5125256;27;20039;-83
2022/06/30 10:03:05;;;;;;;2.85;1.50;;;19.00;99.90;;;;;;5127588;27;20039;-83
2022/06/30 10:05:31;;;;;;;4.32;1.70;;;19.20;99.90;;;;;;5122932;27;20126;-84
2022/06/30 10:07:58;;;;;;;3.00;1.20;;;19.20;99.90;;;;;;5125837;27;20040;-83
2022/06/30 10:10:27;;;;;;;5.85;1.20;;;19.20;99.90;;;;;;5125134;27;20040;-84
2022/06/30 10:12:53;;;;;;;3.72;1.30;;;19.20;99.90;;;;;;5127290;27;20047;-84
2022/06/30 10:15:22;;;;;;;3.08;1.60;;;19.20;99.90;;;;;;5124292;27;20040;-84
2022/06/30 10:17:51;;;;;;;3.47;1.70;;;19.10;99.90;;;;;;5127501;27;20039;-84
2022/06/30 10:20:17;;;;;;;3.47;1.48;;;19.00;99.90;;;;;;5141377;27;20039;-84
2022/06/30 10:22:43;;;;;;;3.42;1.40;;;18.80;99.90;;;;;;5125674;27;20099;-84
2022/06/30 10:25:09;;;;;;;3.05;1.38;;;18.70;99.90;;;;;;5123897;27;20036;-84
2022/06/30 10:27:35;;;;;;;1.75;1.48;;;18.70;99.90;;;;;;5126087;27;20093;-84
2022/06/30 10:30:09;;;;;;;3.28;1.38;;;18.70;99.90;;;;;;5125188;27;20586;-84
2022/06/30 10:32:47;;;;;;;3.42;1.83;;;18.90;99.90;;;;;;5108488;27;20040;-84
2022/06/30 10:35:22;;;;;;;3.50;1.48;;;18.70;99.90;;;;;;5125983;27;20465;-84
2022/06/30 10:38:06;;;;;;;3.80;1.60;;;18.80;99.90;;;;;;5125256;27;20135;-84
2022/06/30 10:40:58;;;;;;;4.43;1.58;;;19.10;99.90;;;;;;5125160;27;20040;-84
2022/06/30 10:43:24;;;;;;;9.88;1.95;;;19.20;99.90;;;;;;5126488;27;20050;-84
2022/06/30 10:46:07;;;;;;;5.18;2.20;;;19.20;99.90;;;;;;5126747;27;20071;-84
2022/06/30 10:48:55;;;;;;;3.85;1.95;;;19.30;99.90;;;;;;5124745;27;20044;-83
2022/06/30 10:51:22;;;;;;;5.13;2.17;;;19.30;99.90;;;;;;5125872;27;20541;-84
2022/06/30 10:53:56;;;;;;;3.40;1.75;;;19.20;99.90;;;;;;5128924;27;20035;-84
2022/06/30 10:56:41;;;;;;;2.60;1.55;;;19.20;99.90;;;;;;5137683;27;21288;-84
2022/06/30 10:59:13;;;;;;;5.25;2.20;;;19.10;99.90;;;;;;5128086;27;20131;-84
2022/06/30 11:02:00;;;;;;;4.22;1.90;;;19.00;99.90;;;;;;5130719;27;20399;-84
2022/06/30 11:04:25;;;;;;;4.03;2.17;;;18.90;99.90;;;;;;5128396;27;20118;-84
2022/06/30 11:07:01;;;;;;;5.65;1.83;;;18.90;99.90;;;;;;5126288;27;20056;-84
2022/06/30 11:09:49;;;;;;;2.80;1.58;;;18.80;99.90;;;;;;5125907;27;20102;-84
2022/06/30 11:12:17;;;;;;;4.07;1.88;;;18.90;99.90;;;;;;5128668;27;20073;-84
2022/06/30 11:14:54;;;;;;;5.78;1.63;;;18.90;99.90;;;;;;5126674;27;20073;-84
2022/06/30 11:17:28;;;;;;;2.67;1.65;;;18.90;99.90;;;;;;5127852;27;20111;-84
2022/06/30 11:20:03;;;;;;;6.25;1.77;;;19.00;99.90;;;;;;5128238;27;20587;-83
2022/06/30 11:22:29;;;;;;;7.90;1.50;;;19.10;99.90;;;;;;5125607;27;20040;-84
2022/06/30 11:28:13;;;;;;;1.70;1.10;;;19.20;99.90;;;;;;5129686;27;20918;-84
2022/06/30 11:30:40;;;;;;;2.78;1.58;;;19.30;99.90;;;;;;5112007;27;20474;-84
2022/06/30 11:33:06;;;;;;;8.88;2.55;;;19.50;99.90;;;;;;5127754;27;20040;-84
2022/06/30 11:35:32;;;;;;;3.85;1.75;;;19.50;99.90;;;;;;5128819;27;20550;-84
2022/06/30 11:37:58;;;;;;;6.32;1.88;;;19.50;99.90;;;;;;5127426;27;20153;-84
2022/06/30 11:40:24;;;;;;;4.63;1.60;;;19.50;99.90;;;;;;5125901;27;20066;-84
2022/06/30 11:42:53;;;;;;;3.50;1.67;;;19.50;99.90;;;;;;5126717;27;20050;-84
2022/06/30 11:45:21;;;;;;;3.25;1.27;;;19.40;99.90;;;;;;5125466;27;20531;-84
2022/06/30 11:47:55;;;;;;;4.13;1.73;;;19.50;99.90;;;;;;5126619;27;20127;-84
2022/06/30 11:50:23;;;;;;;4.75;1.50;;;19.50;99.90;;;;;;5110872;27;20114;-84
2022/06/30 11:52:55;;;;;;;9.13;1.55;;;19.50;99.90;;;;;;5127249;27;20043;-84
2022/06/30 11:55:25;;;;;;;2.97;1.85;;;19.50;99.90;;;;;;5128419;27;20147;-84
2022/06/30 11:57:51;;;;;;;5.05;1.30;;;19.70;99.90;;;;;;5125922;27;20047;-84
2022/06/30 12:00:21;;;;;;;5.00;1.50;;;19.80;99.90;;;;;;5125209;27;20047;-84
2022/06/30 12:02:47;;;;;;;3.47;1.20;;;19.90;99.90;;;;;;5128818;27;20046;-84
2022/06/30 12:05:17;;;;;;;3.30;1.30;;;20.00;99.90;;;;;;5129309;27;20063;-84
2022/06/30 12:07:45;;;;;;;4.53;1.50;;;20.10;99.90;;;;;;5126074;27;20081;-84
2022/06/30 12:10:13;;;;;;;2.80;1.35;;;20.20;99.90;;;;;;5129472;27;20638;-84
2022/06/30 12:12:40;;;;;;;1.90;1.23;;;20.40;99.90;;;;;;5108851;27;20036;-84
2022/06/30 12:15:15;;;;;;;2.97;1.33;;;20.60;99.90;;;;;;5125558;27;20096;-85
2022/06/30 12:17:43;;;;;;;3.95;1.27;;;20.70;99.90;;;;;;5127363;27;20641;-84
2022/06/30 12:20:11;;;;;;;4.88;0.90;;;20.80;99.90;;;;;;5142683;27;20092;-84
2022/06/30 12:22:44;;;;;;;3.78;1.40;;;20.80;99.90;;;;;;5126582;27;20078;-84
2022/06/30 12:25:11;;;;;;;4.97;1.23;;;20.80;99.90;;;;;;5123959;27;20036;-84
2022/06/30 12:27:43;;;;;;;5.07;1.70;;;20.90;99.90;;;;;;5126801;27;20042;-84
2022/06/30 12:30:19;;;;;;;2.75;1.60;;;20.90;99.90;;;;;;5126309;27;20517;-85
2022/06/30 12:32:57;;;;;;;4.90;1.20;;;21.10;99.90;;;;;;5125479;27;20056;-84
2022/06/30 12:35:30;;;;;;;4.18;1.13;;;21.10;99.90;;;;;;5127126;27;20043;-84
2022/06/30 12:37:56;;;;;;;3.28;0.93;;;21.10;99.90;;;;;;5126143;27;20082;-84
2022/06/30 12:40:28;;;;;;;4.43;1.02;;;21.20;99.90;;;;;;5129019;27;20117;-84
2022/06/30 12:42:57;;;;;;;4.80;0.88;;;21.20;99.90;;;;;;5126685;27;20444;-84
2022/06/30 12:45:46;;;;;;;3.63;1.00;;;21.20;99.90;;;;;;5124102;27;20119;-84
2022/06/30 12:48:32;;;;;;;2.47;1.05;;;21.20;99.90;;;;;;5129692;27;20069;-84
2022/06/30 12:50:58;;;;;;;4.47;1.25;;;21.10;99.90;;;;;;5127427;27;20123;-84
2022/06/30 12:53:25;;;;;;;3.28;1.13;;;21.10;99.90;;;;;;5126341;27;20043;-84
2022/06/30 12:55:55;;;;;;;2.17;0.98;;;21.10;99.90;;;;;;5128773;27;20058;-84
2022/06/30 12:58:21;;;;;;;4.88;1.65;;;21.10;99.90;;;;;;5123390;27;20035;-84
2022/06/30 13:00:47;;;;;;;3.72;1.75;;;21.10;99.90;;;;;;5125634;27;20433;-85
2022/06/30 13:03:13;;;;;;;6.25;1.45;;;21.20;99.90;;;;;;5128761;27;20940;-85